Hammer, South Dakota
Current Conditions -  °F | °C
As of 9:56 PM on Thursday 27 Nov 2014 (Local Time) from KETH Reporting Station
Light Snow Light Snow  
Wind Chill: -15°   Ceiling: 900
Heat Index:   Visibility: 2mi
Dew Point:   Wind: 18mph
Humidity: 85%   Direction: 120°ESE
Pressure: 30.15"   Gusts: NA
Location:  45.8778°N, 96.9166°W
Report Text: KETH 280356Z AUTO 12016KT 2SM -SN BKN009 OVC014 M15/M17 A3015 RMK AO2
Loading
Personal Weather Stations






























Interactive Weather Map New forecast layout! Learn more

10-Day Weather Forecast

Advertisements
Track Severe Weather on mobile